Stations météo

réclame
Mon MeteoGroup
Molina De Aragon, Espagne (8232): Température de l'air & dewpoint: 17.10.2017 17:00:00 - 23.10.2017 17:00:00 (CEST)Molina De Aragon, Espagne (8232): Vitesse du vent: 17.10.2017 17:00:00 - 23.10.2017 17:00:00 (CEST)Molina De Aragon, Espagne (8232): Direction du vent: 17.10.2017 17:00:00 - 23.10.2017 17:00:00 (CEST)Molina De Aragon, Espagne (8232): visibility: 17.10.2017 17:00:00 - 23.10.2017 17:00:00 (CEST)Molina De Aragon, Espagne (8232): Quantités de précipitations: 17.10.2017 17:00:00 - 23.10.2017 17:00:00 (CEST)
Date & Time tt [°C] td [°C] ff [km/h] ff [knt] dd vv [km] rr [mm]
23.10.2017 17:00:00 21,6 -3,0 5 3 NNE 20 -
23.10.2017 16:00:00 21,5 -3,1 5 3 NNE 20 0,0
23.10.2017 15:00:00 20,5 -2,6 5 3 N 20 0,0
23.10.2017 14:00:00 18,2 0,8 5 3 SW 20 -
23.10.2017 13:00:00 15,6 3,7 4 2 SW 20 0,0
23.10.2017 12:00:00 10,1 4,5 2 1 S 20 0,0
23.10.2017 11:00:00 4,7 1,5 2 1 NW 20 -
23.10.2017 10:00:00 0,4 -0,6 2 1 SSE 20 0,0
23.10.2017 09:00:00 -1,9 -2,9 2 1 SSE 20 0,0
23.10.2017 08:00:00 -1,8 -2,9 4 2 SE 20 -
23.10.2017 07:00:00 -1,5 -2,6 2 1 ENE 20 0,0
23.10.2017 06:00:00 -1,1 -2,4 2 1 E 20 0,0
23.10.2017 05:00:00 -0,4 -1,7 4 2 ESE 20 -
23.10.2017 04:00:00 0,2 -1,4 4 2 SE 20 0,0
23.10.2017 03:00:00 1,1 -0,4 2 1 ESE 20 0,0
23.10.2017 02:00:00 1,7 -0,2 2 1 E 20 -
23.10.2017 01:00:00 2,8 0,7 2 1 ESE 20 0,0
23.10.2017 00:00:00 4,1 1,5 2 1 ESE 20 0,0
22.10.2017 23:00:00 5,7 2,2 2 1 SE 20 -
22.10.2017 22:00:00 7,5 3,0 4 2 ENE 20 0,0
22.10.2017 21:00:00 8,7 3,1 2 1 E 20 0,0
22.10.2017 20:00:00 10,9 3,0 4 2 N 20 -
22.10.2017 19:00:00 13,7 2,9 9 5 N 20 0,0
22.10.2017 18:00:00 15,6 3,1 5 3 N 20 0,0
22.10.2017 17:00:00 16,1 3,2 4 2 NE 20 -
22.10.2017 16:00:00 16,1 3,2 5 3 NNE 20 0,0
22.10.2017 15:00:00 15,3 3,7 8 4 ENE 20 0,0
22.10.2017 14:00:00 14,4 4,1 5 3 N 20 -
22.10.2017 13:00:00 13,0 5,9 8 4 NNE 19 0,0
22.10.2017 12:00:00 9,4 6,1 2 1 NNW 20 0,0
22.10.2017 11:00:00 6,4 5,8 4 2 SSW 19 -
22.10.2017 10:00:00 4,4 4,1 4 2 ESE 0,7 0,0
22.10.2017 09:00:00 3,1 2,5 2 1 E 3,4 0,0
22.10.2017 08:00:00 2,9 1,6 2 1 E 13 -
22.10.2017 07:00:00 3,9 2,4 2 1 NE 19 0,0
22.10.2017 06:00:00 5,3 3,5 2 1 ESE 18 0,0
22.10.2017 05:00:00 7,0 4,6 2 1 ESE 20 -
22.10.2017 04:00:00 8,3 5,6 2 1 E 20 0,0
22.10.2017 03:00:00 9,0 6,3 2 1 SE 20 0,0
22.10.2017 02:00:00 9,7 6,4 4 2 SE 20 -
22.10.2017 01:00:00 11,2 7,1 2 1 NE 20 0,0
22.10.2017 00:00:00 12,2 7,3 8 4 N 20 0,0
21.10.2017 23:00:00 12,9 5,8 4 2 NW 20 -
21.10.2017 22:00:00 13,2 7,0 4 2 NW 20 0,0
21.10.2017 21:00:00 14,1 9,1 5 3 N 20 0,0
21.10.2017 20:00:00 15,6 10,4 8 4 NNW 20 -
21.10.2017 19:00:00 17,3 10,9 5 3 WSW 20 0,0
21.10.2017 18:00:00 18,4 11,2 8 4 SW 20 0,0
21.10.2017 17:00:00 19,8 10,5 11 6 WSW 20 -
21.10.2017 16:00:00 19,4 10,9 11 6 W 20 0,0
21.10.2017 15:00:00 19,1 11,6 8 4 WNW 20 0,0
21.10.2017 14:00:00 18,6 12,3 8 4 WNW 20 -
21.10.2017 13:00:00 16,5 12,5 8 4 W 20 0,0
21.10.2017 12:00:00 15,1 12,2 5 3 WNW 20 0,0
21.10.2017 11:00:00 13,3 11,2 2 1 SW 20 -
21.10.2017 10:00:00 10,6 9,5 5 3 ESE 18 0,0
21.10.2017 09:00:00 9,1 8,2 0 0 N 15 0,0
21.10.2017 08:00:00 8,5 7,6 2 1 WNW 18 -
21.10.2017 07:00:00 8,1 7,3 2 1 S 15 0,0
21.10.2017 06:00:00 7,4 6,8 2 1 E 12 0,0
21.10.2017 05:00:00 6,5 5,8 2 1 NNE 9 -
21.10.2017 04:00:00 6,4 5,3 2 1 E 3,8 0,0
21.10.2017 03:00:00 7,0 5,9 2 1 NNE 6 0,0
21.10.2017 02:00:00 7,5 6,3 2 1 E 13 -
21.10.2017 01:00:00 8,3 6,9 4 2 ESE 17 0,0
21.10.2017 00:00:00 9,2 7,1 2 1 E 20 0,0
20.10.2017 23:00:00 10,5 7,7 2 1 ESE 20 -
20.10.2017 22:00:00 12,0 8,8 5 3 W 20 0,0
20.10.2017 21:00:00 12,9 9,0 5 3 W 20 0,0
20.10.2017 20:00:00 14,8 8,7 5 3 SW 20 -
20.10.2017 19:00:00 17,4 8,0 9 5 WSW 20 0,0
20.10.2017 18:00:00 18,9 7,3 13 7 W 20 0,0
20.10.2017 17:00:00 20,3 8,0 9 5 WSW 20 -
20.10.2017 16:00:00 20,2 8,5 9 5 SW 19 0,0
20.10.2017 15:00:00 19,2 10,2 4 2 WSW 20 0,0
20.10.2017 14:00:00 18,2 10,8 5 3 S 20 -
20.10.2017 13:00:00 16,6 10,7 5 3 SSW 20 0,0
20.10.2017 12:00:00 13,2 9,8 2 1 W 20 0,0
20.10.2017 11:00:00 11,4 9,3 5 3 W 20 -
20.10.2017 10:00:00 9,7 8,6 2 1 ENE 20 0,0
20.10.2017 09:00:00 8,6 7,8 2 1 ESE 20 0,0
20.10.2017 08:00:00 7,7 6,9 4 2 ESE 20 -
20.10.2017 07:00:00 6,9 6,2 2 1 SE 20 0,0
20.10.2017 06:00:00 6,1 5,7 4 2 E 20 0,0
20.10.2017 05:00:00 4,7 4,0 2 1 E 19 -
20.10.2017 04:00:00 4,5 3,9 4 2 ESE 20 0,0
20.10.2017 03:00:00 3,4 2,5 4 2 E 10 0,0
20.10.2017 02:00:00 3,8 2,6 4 2 E 19 -
20.10.2017 01:00:00 4,9 3,1 2 1 E 19 0,0
20.10.2017 00:00:00 6,5 4,3 4 2 E 20 0,0
19.10.2017 23:00:00 7,2 4,8 5 3 W 20 -
19.10.2017 22:00:00 7,2 4,7 4 2 W 20 0,0
19.10.2017 21:00:00 8,4 5,0 5 3 W 20 0,0
19.10.2017 20:00:00 9,9 5,1 8 4 WNW 20 -
19.10.2017 19:00:00 11,8 5,2 13 7 WNW 20 0,0
19.10.2017 18:00:00 12,6 4,3 9 5 NW 20 0,0
19.10.2017 17:00:00 12,3 5,5 8 4 WNW 20 -
19.10.2017 16:00:00 12,3 6,1 9 5 W 20 0,0
19.10.2017 15:00:00 11,1 7,2 9 5 WSW 20 0,0
19.10.2017 14:00:00 9,8 6,5 8 4 WNW 20 -
19.10.2017 13:00:00 9,0 7,0 8 4 W 20 0,2
19.10.2017 12:00:00 10,0 6,9 9 5 WSW - 0,2
19.10.2017 11:00:00 8,4 6,7 5 3 WSW 20 -
19.10.2017 10:00:00 7,0 5,9 4 2 SW 19 0,0
19.10.2017 09:00:00 6,4 5,5 2 1 S 20 0,2
19.10.2017 08:00:00 6,0 5,3 2 1 NW 18 -
19.10.2017 07:00:00 5,4 4,8 2 1 ESE 20 0,0
19.10.2017 06:00:00 5,0 4,3 2 1 N 20 0,0
19.10.2017 05:00:00 4,6 3,9 2 1 WNW 20 -
19.10.2017 04:00:00 4,4 3,5 2 1 N 17 0,0
19.10.2017 03:00:00 5,5 4,3 2 1 E 18 0,0
19.10.2017 02:00:00 6,3 4,8 5 3 WSW 20 -
19.10.2017 01:00:00 6,7 5,0 4 2 WSW 20 0,0
19.10.2017 00:00:00 7,1 5,6 5 3 SW 20 0,0
18.10.2017 23:00:00 7,6 6,1 8 4 WSW 20 -
18.10.2017 22:00:00 8,5 6,8 13 7 WSW 12 0,2
18.10.2017 21:00:00 8,7 6,3 8 4 WSW 20 0,0
18.10.2017 20:00:00 9,6 7,0 9 5 WSW 20 -
18.10.2017 19:00:00 10,0 8,1 8 4 WSW 20 0,4
18.10.2017 18:00:00 11,0 9,3 5 3 SW 20 1,0
18.10.2017 17:00:00 11,5 9,1 4 2 SW 17 -
18.10.2017 16:00:00 12,3 8,2 11 6 W 20 0,0
18.10.2017 15:00:00 12,2 9,6 11 6 SW 20 0,4
18.10.2017 14:00:00 14,1 8,9 21 11 SSW 20 -
18.10.2017 13:00:00 13,0 10,5 8 4 WSW 18 0,6
18.10.2017 12:00:00 - - - - - - -
18.10.2017 11:00:00 12,5 9,5 13 7 SSW 15 -
18.10.2017 10:00:00 12,1 9,3 11 6 SSW 11 0,2
18.10.2017 09:00:00 12,5 8,8 15 8 SSW 19 0,0
18.10.2017 08:00:00 12,6 9,2 11 6 S 20 -
18.10.2017 07:00:00 10,2 9,1 4 2 ESE 14 1,0
18.10.2017 06:00:00 10,1 8,4 0 0 N 14 0,0
18.10.2017 05:00:00 11,0 9,1 4 2 SE 18 -
18.10.2017 04:00:00 12,3 9,7 2 1 NE 20 0,2
18.10.2017 03:00:00 12,3 9,3 5 3 E 20 0,0
18.10.2017 02:00:00 11,9 9,5 4 2 E 17 -
18.10.2017 01:00:00 12,4 9,6 2 1 NNE 19 0,0
18.10.2017 00:00:00 13,4 10,2 2 1 SSW 20 0,0
17.10.2017 23:00:00 13,6 10,2 2 1 SSW 20 -
17.10.2017 22:00:00 13,9 10,3 9 5 S 20 0,2
17.10.2017 21:00:00 16,1 9,7 18 10 S 14 0,0
17.10.2017 20:00:00 17,4 6,6 8 4 SSW 20 -
17.10.2017 19:00:00 18,4 6,9 9 5 SW 19 0,0
17.10.2017 18:00:00 19,6 7,3 11 6 SW 19 0,0
17.10.2017 17:00:00 19,9 7,3 11 6 SW 20 -

tt = Température de l'air
td = dewpoint
ff = Vitesse du vent
dd = Direction du vent
vv = visibility
rr = Quantités de précipitations

stations d'obs. à proximité